Stephen Scott — WCW8842 — position and weather

sailwx.info

Track history (hours):
 
Tides and Currents Weather Stations Pressure Air Temp Water Temp Dewpoint Dewpoint Depression Visibility Wind Speed Wind Dir Waves Ship Positions

Stephen Scott

Owner: H A REINAUER INC, STATEN ISLAND, NY. More information available from US FCC via Universal Licensing System and Coast Guard Vessel Documentation Center.

Last reported at 2015-May-07 04:33 UTC. Time now 2015-May-07 05:37 UTC.
Position N 40°40' W 074°01'.

Length 30 m; draft 2.5 m.

Type: Towing. MMSI: 366245490.

Date/timePositionNaut miles runAvg speedWind from/ knotsBaromVisibWave heightAir tempDewpointWater temp
2015-May-07 04:33N 40°40' W 074°01'0 0.2
2015-May-07 03:33N 40°40' W 074°01'0 0.0
2015-May-07 02:33N 40°40' W 074°01'0 0.0
2015-May-07 01:33N 40°40' W 074°01'0 0.0
2015-May-07 00:33N 40°40' W 074°01'0 0.0
2015-May-06 23:33N 40°40' W 074°01'10491050.5
2015-May-06 22:33N 58°09' W 074°02'10521049.8
2015-May-06 21:33N 40°37' W 074°04'4 3.9
2015-May-06 20:33N 40°38' W 074°09'7 5.8
2015-May-06 19:18N 40°33' W 074°15'2 2.5
2015-May-06 18:32N 40°34' W 074°13'8 8.3
2015-May-06 17:33N 40°39' W 074°05'3 2.9
2015-May-06 16:34N 40°40' W 074°01'0 0.2
2015-May-06 15:34N 40°40' W 074°01'0 0.1
2015-May-06 14:33N 40°40' W 074°01'4 4.4
2015-May-06 13:33N 40°39' W 074°07'1 0.9
2015-May-06 12:33N 40°39' W 074°08'0 0.1
2015-May-06 11:33N 40°38' W 074°08'3 3.0
2015-May-06 10:33N 40°39' W 074°04'2 2.3
2015-May-06 09:33N 40°36' W 074°03'6 6.4
2015-May-06 08:33N 40°39' W 074°11'0 0.4
2015-May-06 07:33N 40°39' W 074°11'4 4.3
2015-May-06 06:33N 40°39' W 074°06'5 4.6
2015-May-06 05:33N 40°42' W 074°02'2 2.4
2015-May-06 04:33N 40°40' W 074°01'5 5.3
2015-May-06 03:33N 40°39' W 074°08'0 0.1
2015-May-06 02:33N 40°38' W 074°08'0 0.0
2015-May-06 01:33N 40°38' W 074°08'0 0.0
2015-May-06 00:33N 40°38' W 074°08'0 0.0
2015-May-05 23:33N 40°38' W 074°08'0 0.0
2015-May-05 22:34N 40°38' W 074°08'0 0.0
2015-May-05 21:34N 40°38' W 074°08'0 0.0
2015-May-05 20:34N 40°38' W 074°08'0 0.0
2015-May-05 19:33N 40°38' W 074°08'0 0.0
2015-May-05 18:33N 40°38' W 074°08'0 0.0
2015-May-05 17:34N 40°38' W 074°08'0 0.1
2015-May-05 16:33N 40°38' W 074°08'5 5.3
2015-May-05 15:33N 40°40' W 074°01'1 1.1
2015-May-05 14:33N 40°40' W 074°02'0 0.0
2015-May-05 13:33N 40°40' W 074°02'0 0.0
2015-May-05 12:33N 40°40' W 074°02'0 0.1
2015-May-05 11:33N 40°39' W 074°02'0 0.0
2015-May-05 10:33N 40°39' W 074°02'4 3.6
2015-May-05 09:33N 40°36' W 074°02'2 1.9
2015-May-05 08:33N 40°34' W 074°02'5 5.3
2015-May-05 07:33N 40°30' W 073°57'15 6.4
2015-May-05 05:13N 40°15' W 073°55'6 8.5
2015-May-05 04:33N 40°10' W 073°55'8 8.5
2015-May-05 03:33N 40°01' W 073°56'8 8.4
2015-May-05 02:33N 39°53' W 073°56'8 8.5
2015-May-05 01:33N 39°44' W 073°57'9 8.9
2015-May-05 00:33N 39°37' W 074°03'9 8.9
2015-May-04 23:30N 39°29' W 074°09'9 8.6
2015-May-04 22:30N 39°21' W 074°15'36 8.3
2015-May-04 18:08N 38°54' W 074°46'5 8.3
2015-May-04 17:33N 38°51' W 074°50'9 8.8
2015-May-04 16:33N 38°48' W 075°00'9 8.8
2015-May-04 15:33N 38°56' W 075°06'10 8.3
2015-May-04 14:24N 39°05' W 075°11'6 7.3
2015-May-04 13:33N 39°10' W 075°16'7 6.7
2015-May-04 12:33N 39°16' W 075°20'8 7.7
2015-May-04 11:33N 39°21' W 075°27'9 9.1
2015-May-04 10:33N 39°29' W 075°34'5 5.0
2015-May-04 09:33N 39°34' W 075°34'8 8.5
2015-May-04 08:33N 39°32' W 075°44'7 7.4
2015-May-04 07:33N 39°31' W 075°54'8 7.8
2015-May-04 06:33N 39°25' W 076°01'8 7.7
2015-May-04 05:33N 39°21' W 076°10'7 7.4
2015-May-04 04:33N 39°15' W 076°14'8 7.6
2015-May-04 03:33N 39°09' W 076°21'9 9.2
2015-May-04 02:33N 39°13' W 076°32'4 3.6
2015-May-04 01:33N 39°16' W 076°35'1 1.0
2015-May-04 00:28N 39°17' W 076°36'0 0.0
2015-May-03 23:33N 39°17' W 076°36'0 0.0
2015-May-03 22:13N 39°17' W 076°36'0 0.0
2015-May-03 21:31N 39°17' W 076°36'0 0.0
2015-May-03 20:32N 39°17' W 076°36'0 0.0
2015-May-03 19:20N 39°17' W 076°36'0 0.0
2015-May-03 18:33N 39°17' W 076°36'0 0.0
2015-May-03 17:33N 39°17' W 076°36'0 0.0
2015-May-03 16:33N 39°17' W 076°36'0 0.0
2015-May-03 15:31N 39°17' W 076°36'3 3.0
2015-May-03 14:33N 39°14' W 076°34'1 1.0
2015-May-03 13:33N 39°14' W 076°33'4 3.9
2015-May-03 12:33N 39°11' W 076°29'4 4.1
2015-May-03 11:33N 39°10' W 076°24'4 3.8
2015-May-03 10:33N 39°09' W 076°19'6 6.1
2015-May-03 09:33N 39°14' W 076°14'6 5.4
2015-May-03 08:32N 39°19' W 076°12'6 5.8
2015-May-03 07:32N 39°23' W 076°06'7 7.3
2015-May-03 06:33N 39°27' W 075°59'9 9.0
2015-May-03 05:33N 39°32' W 075°49'10 9.7
2015-May-03 04:33N 39°33' W 075°37'6 6.0
2015-May-03 03:33N 39°28' W 075°34'10 9.6
2015-May-03 02:33N 39°20' W 075°26'1010.0
2015-May-03 01:30N 39°12' W 075°17'9 9.4
2015-May-03 00:33N 39°05' W 075°11'7 7.2
2015-May-02 23:34N 38°58' W 075°08'6 6.1
2015-May-02 22:33N 38°53' W 075°04'7 7.2
2015-May-02 21:33N 38°48' W 074°57'7 7.3
2015-May-02 20:33N 38°52' W 074°48'43 7.0
2015-May-02 14:25N 39°24' W 074°12'7 7.0
2015-May-02 13:28N 39°30' W 074°08'7 7.0
2015-May-02 12:32N 39°36' W 074°04'7 7.2
2015-May-02 11:33N 39°42' W 074°00'6 6.5
2015-May-02 10:33N 39°48' W 073°58'6 6.5
2015-May-02 09:33N 39°55' W 073°58'7 6.6
2015-May-02 08:33N 40°01' W 073°58'7 6.9
2015-May-02 07:33N 40°08' W 073°57'7 6.8
2015-May-02 06:33N 40°15' W 073°56'7 6.8
2015-May-02 05:31N 40°22' W 073°54'7 7.2
2015-May-02 04:33N 40°29' W 073°54'8 8.0
2015-May-02 03:33N 40°34' W 074°02'6 5.5
2015-May-02 02:32N 40°39' W 074°06'6 6.3
2015-May-02 01:31N 40°35' W 074°13'3 3.3
2015-May-02 00:32N 40°32' W 074°15'0 0.1
2015-May-01 22:30N 40°32' W 074°15'0 0.0
2015-May-01 19:16N 40°32' W 074°15'0 0.0
2015-May-01 16:30N 40°32' W 074°15'4 4.4
2015-May-01 15:32N 40°36' W 074°12'5 4.8
2015-May-01 14:33N 40°40' W 074°09'3 2.8
2015-May-01 13:33N 40°42' W 074°07'4 3.6
2015-May-01 12:27N 40°38' W 074°08'1 1.1
2015-May-01 11:31N 40°39' W 074°07'0 0.0
2015-May-01 10:30N 40°39' W 074°07'1 1.1
2015-May-01 09:33N 40°38' W 074°08'0 0.0
2015-May-01 08:31N 40°38' W 074°08'0 0.0
2015-May-01 07:33N 40°38' W 074°08'0 0.0
2015-May-01 06:33N 40°38' W 074°08'2 1.9
2015-May-01 05:27N 40°39' W 074°10'3 3.4
2015-May-01 04:33N 40°36' W 074°12'6 5.8
2015-May-01 03:32N 40°39' W 074°05'2 2.0
2015-May-01 02:33N 40°39' W 074°03'0 0.1
2015-May-01 01:33N 40°39' W 074°03'0 0.0
2015-May-01 00:33N 40°39' W 074°03'0 0.1
2015-Apr-30 23:33N 40°39' W 074°03'0 0.0
2015-Apr-30 22:33N 40°39' W 074°03'0 0.0
2015-Apr-30 21:33N 40°39' W 074°03'0 0.3
2015-Apr-30 20:34N 40°39' W 074°03'2 1.6
2015-Apr-30 19:33N 40°40' W 074°01'0 0.1
2015-Apr-30 18:33N 40°40' W 074°01'0 0.0
2015-Apr-30 17:33N 40°40' W 074°01'3 3.2
2015-Apr-30 16:33N 40°39' W 074°05'0 0.1
2015-Apr-30 15:33N 40°39' W 074°05'2 2.0
2015-Apr-30 14:31N 40°38' W 074°08'0 0.0
2015-Apr-30 13:33N 40°38' W 074°08'1 1.2
2015-Apr-30 12:30N 40°38' W 074°09'0 0.2
2015-Apr-30 11:33N 40°38' W 074°09'3 3.2
2015-Apr-30 10:33N 40°39' W 074°05'2 2.1
2015-Apr-30 09:33N 40°38' W 074°08'0 0.0
2015-Apr-30 08:33N 40°38' W 074°08'4 3.8
2015-Apr-30 07:33N 40°37' W 074°12'5 4.6
2015-Apr-30 06:29N 40°32' W 074°15'0 0.0
2015-Apr-30 05:17N 40°32' W 074°15'0 0.0
2015-Apr-30 04:33N 40°32' W 074°15'0 0.0
2015-Apr-30 03:31N 40°32' W 074°15'0 0.0
2015-Apr-30 02:28N 40°32' W 074°15'0 0.0
2015-Apr-30 01:26N 40°32' W 074°15'0 0.0
2015-Apr-30 00:32N 40°32' W 074°15'0 0.0
2015-Apr-29 22:18N 40°32' W 074°15'0 0.4
2015-Apr-29 21:04N 40°33' W 074°15'0 0.3
2015-Apr-29 20:33N 40°33' W 074°15'0 0.0
2015-Apr-29 19:33N 40°33' W 074°15'0 0.0
2015-Apr-29 18:25N 40°33' W 074°15'0 0.0
2015-Apr-29 17:33N 40°33' W 074°15'0 0.0
2015-Apr-29 16:33N 40°33' W 074°15'1 0.8
2015-Apr-29 15:33N 40°33' W 074°14'1 0.8
2015-Apr-29 14:04N 40°32' W 074°15'4 6.9
2015-Apr-29 13:33N 40°35' W 074°12'0 0.1
2015-Apr-29 12:23N 40°35' W 074°12'0 0.0
2015-Apr-29 11:33N 40°35' W 074°12'0 0.0
2015-Apr-29 04:11N 40°35' W 074°12'1 1.4
2015-Apr-29 03:26N 40°36' W 074°12'0 0.0
2015-Apr-29 02:32N 40°36' W 074°12'0 0.1
2015-Apr-29 01:12N 40°36' W 074°12'2 3.3
2015-Apr-29 00:33N 40°38' W 074°12'3 2.8
2015-Apr-28 23:30N 40°38' W 074°08'0 0.0
2015-Apr-28 22:30N 40°38' W 074°08'0 0.0
2015-Apr-28 21:31N 40°38' W 074°08'0 0.0
2015-Apr-28 20:31N 40°38' W 074°08'0 0.0
2015-Apr-28 19:33N 40°38' W 074°08'0 0.0
2015-Apr-28 18:33N 40°38' W 074°08'0 0.0
2015-Apr-28 17:30N 40°38' W 074°08'0 0.0
2015-Apr-28 16:30N 40°38' W 074°08'0 0.0
2015-Apr-28 15:30N 40°38' W 074°08'0 0.0
2015-Apr-28 14:33N 40°38' W 074°08'0 0.0
2015-Apr-28 13:33N 40°38' W 074°08'0 0.0
2015-Apr-28 12:33N 40°38' W 074°08'0 0.0
2015-Apr-28 11:33N 40°38' W 074°08'0 0.0
2015-Apr-28 10:33N 40°38' W 074°08'0 0.0
2015-Apr-28 09:33N 40°38' W 074°08'0 0.0
2015-Apr-28 08:24N 40°38' W 074°08'0 0.0
2015-Apr-28 07:27N 40°38' W 074°08'0 0.0
2015-Apr-28 06:33N 40°38' W 074°08'0 0.0
2015-Apr-28 05:27N 40°38' W 074°08'0 0.0
2015-Apr-28 04:30N 40°38' W 074°08'0 0.0
2015-Apr-28 03:33N 40°38' W 074°08'0 0.5
2015-Apr-28 02:33N 40°39' W 074°07'1 0.5
2015-Apr-28 01:33N 40°38' W 074°08'0 0.0
2015-Apr-28 00:33N 40°38' W 074°08'0 0.0
2015-Apr-27 23:33N 40°38' W 074°08'0 0.1
2015-Apr-27 22:33N 40°39' W 074°08'0 0.0
2015-Apr-27 18:09N 40°38' W 074°08'5 9.0
2015-Apr-27 17:33N 40°40' W 074°01'0 0.2
2015-Apr-27 16:32N 40°40' W 074°01'1 0.9
2015-Apr-27 15:33N 40°40' W 074°02'0 0.0
2015-Apr-27 14:33N 40°40' W 074°02'0 0.0
2015-Apr-27 13:33N 40°40' W 074°02'0 0.0
2015-Apr-27 12:33N 40°40' W 074°02'0 0.0
2015-Apr-27 11:33N 40°40' W 074°02'5 4.7
2015-Apr-27 10:28N 40°38' W 074°09'4 4.4
2015-Apr-27 09:33N 40°42' W 074°07'4 3.8
2015-Apr-27 08:34N 40°39' W 074°07'2 1.9
2015-Apr-27 07:32N 40°39' W 074°05'2 2.2
2015-Apr-27 06:33N 40°38' W 074°08'0 0.0
2015-Apr-27 05:33N 40°38' W 074°08'  
Track history (hours):
 
Tides and Currents Weather Stations Pressure Air Temp Water Temp Dewpoint Dewpoint Depression Visibility Wind Speed Wind Dir Waves Ship Positions

Stephen Scott

Owner: H A REINAUER INC, STATEN ISLAND, NY. More information available from US FCC via Universal Licensing System and Coast Guard Vessel Documentation Center.

Last reported at 2015-May-07 04:33 UTC. Time now 2015-May-07 05:37 UTC.
Position N 40°40' W 074°01'.

Length 30 m; draft 2.5 m.

Type: Towing. MMSI: 366245490.

Date/timePositionNaut miles runAvg speedWind from/ knotsBaromVisibWave heightAir tempDewpointWater temp
2015-May-07 04:33N 40°40' W 074°01'0 0.2
2015-May-07 03:33N 40°40' W 074°01'0 0.0
2015-May-07 02:33N 40°40' W 074°01'0 0.0
2015-May-07 01:33N 40°40' W 074°01'0 0.0
2015-May-07 00:33N 40°40' W 074°01'0 0.0
2015-May-06 23:33N 40°40' W 074°01'10491050.5
2015-May-06 22:33N 58°09' W 074°02'10521049.8
2015-May-06 21:33N 40°37' W 074°04'4 3.9
2015-May-06 20:33N 40°38' W 074°09'7 5.8
2015-May-06 19:18N 40°33' W 074°15'2 2.5
2015-May-06 18:32N 40°34' W 074°13'8 8.3
2015-May-06 17:33N 40°39' W 074°05'3 2.9
2015-May-06 16:34N 40°40' W 074°01'0 0.2
2015-May-06 15:34N 40°40' W 074°01'0 0.1
2015-May-06 14:33N 40°40' W 074°01'4 4.4
2015-May-06 13:33N 40°39' W 074°07'1 0.9
2015-May-06 12:33N 40°39' W 074°08'0 0.1
2015-May-06 11:33N 40°38' W 074°08'3 3.0
2015-May-06 10:33N 40°39' W 074°04'2 2.3
2015-May-06 09:33N 40°36' W 074°03'6 6.4
2015-May-06 08:33N 40°39' W 074°11'0 0.4
2015-May-06 07:33N 40°39' W 074°11'4 4.3
2015-May-06 06:33N 40°39' W 074°06'5 4.6
2015-May-06 05:33N 40°42' W 074°02'2 2.4
2015-May-06 04:33N 40°40' W 074°01'5 5.3
2015-May-06 03:33N 40°39' W 074°08'0 0.1
2015-May-06 02:33N 40°38' W 074°08'0 0.0
2015-May-06 01:33N 40°38' W 074°08'0 0.0
2015-May-06 00:33N 40°38' W 074°08'0 0.0
2015-May-05 23:33N 40°38' W 074°08'0 0.0
2015-May-05 22:34N 40°38' W 074°08'0 0.0
2015-May-05 21:34N 40°38' W 074°08'0 0.0
2015-May-05 20:34N 40°38' W 074°08'0 0.0
2015-May-05 19:33N 40°38' W 074°08'0 0.0
2015-May-05 18:33N 40°38' W 074°08'0 0.0
2015-May-05 17:34N 40°38' W 074°08'0 0.1
2015-May-05 16:33N 40°38' W 074°08'5 5.3
2015-May-05 15:33N 40°40' W 074°01'1 1.1
2015-May-05 14:33N 40°40' W 074°02'0 0.0
2015-May-05 13:33N 40°40' W 074°02'0 0.0
2015-May-05 12:33N 40°40' W 074°02'0 0.1
2015-May-05 11:33N 40°39' W 074°02'0 0.0
2015-May-05 10:33N 40°39' W 074°02'4 3.6
2015-May-05 09:33N 40°36' W 074°02'2 1.9
2015-May-05 08:33N 40°34' W 074°02'5 5.3
2015-May-05 07:33N 40°30' W 073°57'15 6.4
2015-May-05 05:13N 40°15' W 073°55'6 8.5
2015-May-05 04:33N 40°10' W 073°55'8 8.5
2015-May-05 03:33N 40°01' W 073°56'8 8.4
2015-May-05 02:33N 39°53' W 073°56'8 8.5
2015-May-05 01:33N 39°44' W 073°57'9 8.9
2015-May-05 00:33N 39°37' W 074°03'9 8.9
2015-May-04 23:30N 39°29' W 074°09'9 8.6
2015-May-04 22:30N 39°21' W 074°15'36 8.3
2015-May-04 18:08N 38°54' W 074°46'5 8.3
2015-May-04 17:33N 38°51' W 074°50'9 8.8
2015-May-04 16:33N 38°48' W 075°00'9 8.8
2015-May-04 15:33N 38°56' W 075°06'10 8.3
2015-May-04 14:24N 39°05' W 075°11'6 7.3
2015-May-04 13:33N 39°10' W 075°16'7 6.7
2015-May-04 12:33N 39°16' W 075°20'8 7.7
2015-May-04 11:33N 39°21' W 075°27'9 9.1
2015-May-04 10:33N 39°29' W 075°34'5 5.0
2015-May-04 09:33N 39°34' W 075°34'8 8.5
2015-May-04 08:33N 39°32' W 075°44'7 7.4
2015-May-04 07:33N 39°31' W 075°54'8 7.8
2015-May-04 06:33N 39°25' W 076°01'8 7.7
2015-May-04 05:33N 39°21' W 076°10'7 7.4
2015-May-04 04:33N 39°15' W 076°14'8 7.6
2015-May-04 03:33N 39°09' W 076°21'9 9.2
2015-May-04 02:33N 39°13' W 076°32'4 3.6
2015-May-04 01:33N 39°16' W 076°35'1 1.0
2015-May-04 00:28N 39°17' W 076°36'0 0.0
2015-May-03 23:33N 39°17' W 076°36'0 0.0
2015-May-03 22:13N 39°17' W 076°36'0 0.0
2015-May-03 21:31N 39°17' W 076°36'0 0.0
2015-May-03 20:32N 39°17' W 076°36'0 0.0
2015-May-03 19:20N 39°17' W 076°36'0 0.0
2015-May-03 18:33N 39°17' W 076°36'0 0.0
2015-May-03 17:33N 39°17' W 076°36'0 0.0
2015-May-03 16:33N 39°17' W 076°36'0 0.0
2015-May-03 15:31N 39°17' W 076°36'3 3.0
2015-May-03 14:33N 39°14' W 076°34'1 1.0
2015-May-03 13:33N 39°14' W 076°33'4 3.9
2015-May-03 12:33N 39°11' W 076°29'4 4.1
2015-May-03 11:33N 39°10' W 076°24'4 3.8
2015-May-03 10:33N 39°09' W 076°19'6 6.1
2015-May-03 09:33N 39°14' W 076°14'6 5.4
2015-May-03 08:32N 39°19' W 076°12'6 5.8
2015-May-03 07:32N 39°23' W 076°06'7 7.3
2015-May-03 06:33N 39°27' W 075°59'9 9.0
2015-May-03 05:33N 39°32' W 075°49'10 9.7
2015-May-03 04:33N 39°33' W 075°37'6 6.0
2015-May-03 03:33N 39°28' W 075°34'10 9.6
2015-May-03 02:33N 39°20' W 075°26'1010.0
2015-May-03 01:30N 39°12' W 075°17'9 9.4
2015-May-03 00:33N 39°05' W 075°11'7 7.2
2015-May-02 23:34N 38°58' W 075°08'6 6.1
2015-May-02 22:33N 38°53' W 075°04'7 7.2
2015-May-02 21:33N 38°48' W 074°57'7 7.3
2015-May-02 20:33N 38°52' W 074°48'43 7.0
2015-May-02 14:25N 39°24' W 074°12'7 7.0
2015-May-02 13:28N 39°30' W 074°08'7 7.0
2015-May-02 12:32N 39°36' W 074°04'7 7.2
2015-May-02 11:33N 39°42' W 074°00'6 6.5
2015-May-02 10:33N 39°48' W 073°58'6 6.5
2015-May-02 09:33N 39°55' W 073°58'7 6.6
2015-May-02 08:33N 40°01' W 073°58'7 6.9
2015-May-02 07:33N 40°08' W 073°57'7 6.8
2015-May-02 06:33N 40°15' W 073°56'7 6.8
2015-May-02 05:31N 40°22' W 073°54'7 7.2
2015-May-02 04:33N 40°29' W 073°54'8 8.0
2015-May-02 03:33N 40°34' W 074°02'6 5.5
2015-May-02 02:32N 40°39' W 074°06'6 6.3
2015-May-02 01:31N 40°35' W 074°13'3 3.3
2015-May-02 00:32N 40°32' W 074°15'0 0.1
2015-May-01 22:30N 40°32' W 074°15'0 0.0
2015-May-01 19:16N 40°32' W 074°15'0 0.0
2015-May-01 16:30N 40°32' W 074°15'4 4.4
2015-May-01 15:32N 40°36' W 074°12'5 4.8
2015-May-01 14:33N 40°40' W 074°09'3 2.8
2015-May-01 13:33N 40°42' W 074°07'4 3.6
2015-May-01 12:27N 40°38' W 074°08'1 1.1
2015-May-01 11:31N 40°39' W 074°07'0 0.0
2015-May-01 10:30N 40°39' W 074°07'1 1.1
2015-May-01 09:33N 40°38' W 074°08'0 0.0
2015-May-01 08:31N 40°38' W 074°08'0 0.0
2015-May-01 07:33N 40°38' W 074°08'0 0.0
2015-May-01 06:33N 40°38' W 074°08'2 1.9
2015-May-01 05:27N 40°39' W 074°10'3 3.4
2015-May-01 04:33N 40°36' W 074°12'6 5.8
2015-May-01 03:32N 40°39' W 074°05'2 2.0
2015-May-01 02:33N 40°39' W 074°03'0 0.1
2015-May-01 01:33N 40°39' W 074°03'0 0.0
2015-May-01 00:33N 40°39' W 074°03'0 0.1
2015-Apr-30 23:33N 40°39' W 074°03'0 0.0
2015-Apr-30 22:33N 40°39' W 074°03'0 0.0
2015-Apr-30 21:33N 40°39' W 074°03'0 0.3
2015-Apr-30 20:34N 40°39' W 074°03'2 1.6
2015-Apr-30 19:33N 40°40' W 074°01'0 0.1
2015-Apr-30 18:33N 40°40' W 074°01'0 0.0
2015-Apr-30 17:33N 40°40' W 074°01'3 3.2
2015-Apr-30 16:33N 40°39' W 074°05'0 0.1
2015-Apr-30 15:33N 40°39' W 074°05'2 2.0
2015-Apr-30 14:31N 40°38' W 074°08'0 0.0
2015-Apr-30 13:33N 40°38' W 074°08'1 1.2
2015-Apr-30 12:30N 40°38' W 074°09'0 0.2
2015-Apr-30 11:33N 40°38' W 074°09'3 3.2
2015-Apr-30 10:33N 40°39' W 074°05'2 2.1
2015-Apr-30 09:33N 40°38' W 074°08'0 0.0
2015-Apr-30 08:33N 40°38' W 074°08'4 3.8
2015-Apr-30 07:33N 40°37' W 074°12'5 4.6
2015-Apr-30 06:29N 40°32' W 074°15'0 0.0
2015-Apr-30 05:17N 40°32' W 074°15'0 0.0
2015-Apr-30 04:33N 40°32' W 074°15'0 0.0
2015-Apr-30 03:31N 40°32' W 074°15'0 0.0
2015-Apr-30 02:28N 40°32' W 074°15'0 0.0
2015-Apr-30 01:26N 40°32' W 074°15'0 0.0
2015-Apr-30 00:32N 40°32' W 074°15'0 0.0
2015-Apr-29 22:18N 40°32' W 074°15'0 0.4
2015-Apr-29 21:04N 40°33' W 074°15'0 0.3
2015-Apr-29 20:33N 40°33' W 074°15'0 0.0
2015-Apr-29 19:33N 40°33' W 074°15'0 0.0
2015-Apr-29 18:25N 40°33' W 074°15'0 0.0
2015-Apr-29 17:33N 40°33' W 074°15'0 0.0
2015-Apr-29 16:33N 40°33' W 074°15'1 0.8
2015-Apr-29 15:33N 40°33' W 074°14'1 0.8
2015-Apr-29 14:04N 40°32' W 074°15'4 6.9
2015-Apr-29 13:33N 40°35' W 074°12'0 0.1
2015-Apr-29 12:23N 40°35' W 074°12'0 0.0
2015-Apr-29 11:33N 40°35' W 074°12'0 0.0
2015-Apr-29 04:11N 40°35' W 074°12'1 1.4
2015-Apr-29 03:26N 40°36' W 074°12'0 0.0
2015-Apr-29 02:32N 40°36' W 074°12'0 0.1
2015-Apr-29 01:12N 40°36' W 074°12'2 3.3
2015-Apr-29 00:33N 40°38' W 074°12'3 2.8
2015-Apr-28 23:30N 40°38' W 074°08'0 0.0
2015-Apr-28 22:30N 40°38' W 074°08'0 0.0
2015-Apr-28 21:31N 40°38' W 074°08'0 0.0
2015-Apr-28 20:31N 40°38' W 074°08'0 0.0
2015-Apr-28 19:33N 40°38' W 074°08'0 0.0
2015-Apr-28 18:33N 40°38' W 074°08'0 0.0
2015-Apr-28 17:30N 40°38' W 074°08'0 0.0
2015-Apr-28 16:30N 40°38' W 074°08'0 0.0
2015-Apr-28 15:30N 40°38' W 074°08'0 0.0
2015-Apr-28 14:33N 40°38' W 074°08'0 0.0
2015-Apr-28 13:33N 40°38' W 074°08'0 0.0
2015-Apr-28 12:33N 40°38' W 074°08'0 0.0
2015-Apr-28 11:33N 40°38' W 074°08'0 0.0
2015-Apr-28 10:33N 40°38' W 074°08'0 0.0
2015-Apr-28 09:33N 40°38' W 074°08'0 0.0
2015-Apr-28 08:24N 40°38' W 074°08'0 0.0
2015-Apr-28 07:27N 40°38' W 074°08'0 0.0
2015-Apr-28 06:33N 40°38' W 074°08'0 0.0
2015-Apr-28 05:27N 40°38' W 074°08'0 0.0
2015-Apr-28 04:30N 40°38' W 074°08'0 0.0
2015-Apr-28 03:33N 40°38' W 074°08'0 0.5
2015-Apr-28 02:33N 40°39' W 074°07'1 0.5
2015-Apr-28 01:33N 40°38' W 074°08'0 0.0
2015-Apr-28 00:33N 40°38' W 074°08'0 0.0
2015-Apr-27 23:33N 40°38' W 074°08'0 0.1
2015-Apr-27 22:33N 40°39' W 074°08'0 0.0
2015-Apr-27 18:09N 40°38' W 074°08'5 9.0
2015-Apr-27 17:33N 40°40' W 074°01'0 0.2
2015-Apr-27 16:32N 40°40' W 074°01'1 0.9
2015-Apr-27 15:33N 40°40' W 074°02'0 0.0
2015-Apr-27 14:33N 40°40' W 074°02'0 0.0
2015-Apr-27 13:33N 40°40' W 074°02'0 0.0
2015-Apr-27 12:33N 40°40' W 074°02'0 0.0
2015-Apr-27 11:33N 40°40' W 074°02'5 4.7
2015-Apr-27 10:28N 40°38' W 074°09'4 4.4
2015-Apr-27 09:33N 40°42' W 074°07'4 3.8
2015-Apr-27 08:34N 40°39' W 074°07'2 1.9
2015-Apr-27 07:32N 40°39' W 074°05'2 2.2
2015-Apr-27 06:33N 40°38' W 074°08'0 0.0
2015-Apr-27 05:33N 40°38' W 074°08'  

Dump ship's entire track history